sensor_id;sensor_type;location;lat;lon;timestamp;pressure;altitude;pressure_sealevel;temperature;humidity
63731;BME280;49747;51.334;6.830;2023-01-13T00:00:59;99969.66;;;13.37;94.65
63731;BME280;49747;51.334;6.830;2023-01-13T00:03:25;99971.44;;;13.36;94.21
63731;BME280;49747;51.334;6.830;2023-01-13T00:05:52;99974.97;;;13.37;93.89
63731;BME280;49747;51.334;6.830;2023-01-13T00:08:19;99975.94;;;13.36;93.71
63731;BME280;49747;51.334;6.830;2023-01-13T00:10:46;99970.63;;;13.36;93.50
63731;BME280;49747;51.334;6.830;2023-01-13T00:13:14;99957.72;;;13.31;93.23
63731;BME280;49747;51.334;6.830;2023-01-13T00:15:40;99958.28;;;13.35;93.01
63731;BME280;49747;51.334;6.830;2023-01-13T00:18:07;99973.44;;;13.34;92.48
63731;BME280;49747;51.334;6.830;2023-01-13T00:20:34;99960.25;;;13.33;91.63
63731;BME280;49747;51.334;6.830;2023-01-13T00:23:00;99975.28;;;13.34;91.65
63731;BME280;49747;51.334;6.830;2023-01-13T00:25:27;99965.59;;;13.33;91.32
63731;BME280;49747;51.334;6.830;2023-01-13T00:27:54;99968.25;;;13.33;91.36
63731;BME280;49747;51.334;6.830;2023-01-13T00:30:21;99960.25;;;13.33;91.28
63731;BME280;49747;51.334;6.830;2023-01-13T00:32:47;99945.94;;;13.34;91.19
63731;BME280;49747;51.334;6.830;2023-01-13T00:35:14;99945.94;;;13.34;90.89
63731;BME280;49747;51.334;6.830;2023-01-13T00:37:41;99962.22;;;13.30;90.37
63731;BME280;49747;51.334;6.830;2023-01-13T00:40:08;99965.59;;;13.33;90.08
63731;BME280;49747;51.334;6.830;2023-01-13T00:42:35;99966.72;;;13.30;90.59
63731;BME280;49747;51.334;6.830;2023-01-13T00:45:20;99973.59;;;13.33;89.96
63731;BME280;49747;51.334;6.830;2023-01-13T00:47:46;99971.75;;;13.33;89.60
63731;BME280;49747;51.334;6.830;2023-01-13T00:50:13;99974.56;;;13.31;88.96
63731;BME280;49747;51.334;6.830;2023-01-13T00:52:40;99975.41;;;13.32;89.15
63731;BME280;49747;51.334;6.830;2023-01-13T00:55:07;99960.38;;;13.31;88.60
63731;BME280;49747;51.334;6.830;2023-01-13T00:57:34;99948.72;;;13.32;88.84
63731;BME280;49747;51.334;6.830;2023-01-13T01:00:01;99953.22;;;13.31;88.20
63731;BME280;49747;51.334;6.830;2023-01-13T01:02:27;99953.22;;;13.31;88.77
63731;BME280;49747;51.334;6.830;2023-01-13T01:04:54;99978.06;;;13.32;87.69
63731;BME280;49747;51.334;6.830;2023-01-13T01:07:21;99960.53;;;13.29;87.28
63731;BME280;49747;51.334;6.830;2023-01-13T01:09:48;99967.56;;;13.30;86.46
63731;BME280;49747;51.334;6.830;2023-01-13T01:12:15;99963.22;;;13.29;86.63
63731;BME280;49747;51.334;6.830;2023-01-13T01:14:41;99964.06;;;13.30;86.33
63731;BME280;49747;51.334;6.830;2023-01-13T01:17:08;99936.66;;;13.28;85.97
63731;BME280;49747;51.334;6.830;2023-01-13T01:19:34;99935.69;;;13.29;84.82
63731;BME280;49747;51.334;6.830;2023-01-13T01:22:04;99950.00;;;13.28;84.96
63731;BME280;49747;51.334;6.830;2023-01-13T01:24:30;99959.72;;;13.29;84.78
63731;BME280;49747;51.334;6.830;2023-01-13T01:26:57;99959.84;;;13.27;85.14
63731;BME280;49747;51.334;6.830;2023-01-13T01:29:24;99972.34;;;13.27;85.27
63731;BME280;49747;51.334;6.830;2023-01-13T01:31:50;99982.31;;;13.25;85.06
63731;BME280;49747;51.334;6.830;2023-01-13T01:34:17;99983.28;;;13.24;84.82
63731;BME280;49747;51.334;6.830;2023-01-13T01:36:44;99976.00;;;13.26;84.56
63731;BME280;49747;51.334;6.830;2023-01-13T01:39:10;99984.00;;;13.26;84.61
63731;BME280;49747;51.334;6.830;2023-01-13T01:41:37;99983.16;;;13.25;83.46
63731;BME280;49747;51.334;6.830;2023-01-13T01:47:12;99963.19;;;13.20;82.71
63731;BME280;49747;51.334;6.830;2023-01-13T01:49:41;99981.34;;;13.26;82.13
63731;BME280;49747;51.334;6.830;2023-01-13T01:52:28;99983.00;;;13.27;82.37
63731;BME280;49747;51.334;6.830;2023-01-13T01:55:13;99995.50;;;13.26;82.27
63731;BME280;49747;51.334;6.830;2023-01-13T02:00:07;99993.13;;;13.23;82.16
63731;BME280;49747;51.334;6.830;2023-01-13T02:02:38;99994.09;;;13.22;81.95
63731;BME280;49747;51.334;6.830;2023-01-13T02:05:06;99985.25;;;13.22;81.51
63731;BME280;49747;51.334;6.830;2023-01-13T02:07:33;99979.06;;;13.21;80.90
63731;BME280;49747;51.334;6.830;2023-01-13T02:10:04;99957.03;;;13.19;80.84
63731;BME280;49747;51.334;6.830;2023-01-13T02:12:31;99970.53;;;13.18;80.26
63731;BME280;49747;51.334;6.830;2023-01-13T02:15:03;99972.47;;;13.16;79.01
63731;BME280;49747;51.334;6.830;2023-01-13T02:25:41;99987.25;;;13.10;78.51
63731;BME280;49747;51.334;6.830;2023-01-13T02:28:45;99981.91;;;13.10;78.31
63731;BME280;49747;51.334;6.830;2023-01-13T02:31:42;99985.56;;;13.09;78.23
63731;BME280;49747;51.334;6.830;2023-01-13T02:34:20;99986.41;;;13.10;77.70
63731;BME280;49747;51.334;6.830;2023-01-13T02:36:55;99985.84;;;13.06;76.89
63731;BME280;49747;51.334;6.830;2023-01-13T02:39:56;99991.31;;;13.04;77.42
63731;BME280;49747;51.334;6.830;2023-01-13T02:42:48;99985.47;;;13.01;75.87
63731;BME280;49747;51.334;6.830;2023-01-13T02:45:45;99986.41;;;13.00;75.40
63731;BME280;49747;51.334;6.830;2023-01-13T02:48:15;99994.72;;;12.97;74.98
63731;BME280;49747;51.334;6.830;2023-01-13T02:50:46;99990.34;;;12.96;72.94
63731;BME280;49747;51.334;6.830;2023-01-13T02:53:26;99991.06;;;12.88;71.85
63731;BME280;49747;51.334;6.830;2023-01-13T02:55:57;99991.38;;;12.85;71.99
63731;BME280;49747;51.334;6.830;2023-01-13T02:58:28;99983.50;;;12.83;71.34
63731;BME280;49747;51.334;6.830;2023-01-13T03:00:56;99989.28;;;12.79;71.24
63731;BME280;49747;51.334;6.830;2023-01-13T03:03:23;99992.22;;;12.76;70.17
63731;BME280;49747;51.334;6.830;2023-01-13T03:05:53;99984.38;;;12.74;69.86
63731;BME280;49747;51.334;6.830;2023-01-13T03:08:42;99984.66;;;12.71;69.47
63731;BME280;49747;51.334;6.830;2023-01-13T03:11:18;99987.59;;;12.68;68.96
63731;BME280;49747;51.334;6.830;2023-01-13T03:24:41;99966.31;;;12.58;68.00
63731;BME280;49747;51.334;6.830;2023-01-13T03:27:34;99975.72;;;12.53;68.39
63731;BME280;49747;51.334;6.830;2023-01-13T03:30:16;99977.41;;;12.54;67.91
63731;BME280;49747;51.334;6.830;2023-01-13T03:32:48;99981.31;;;12.50;68.27
63731;BME280;49747;51.334;6.830;2023-01-13T03:35:22;99982.31;;;12.49;68.27
63731;BME280;49747;51.334;6.830;2023-01-13T03:37:57;99978.94;;;12.47;68.19
63731;BME280;49747;51.334;6.830;2023-01-13T03:40:32;99980.91;;;12.45;68.25
63731;BME280;49747;51.334;6.830;2023-01-13T03:43:06;99977.53;;;12.43;67.89
63731;BME280;49747;51.334;6.830;2023-01-13T03:45:56;99978.94;;;12.37;67.76
63731;BME280;49747;51.334;6.830;2023-01-13T03:48:26;99983.41;;;12.37;68.45
63731;BME280;49747;51.334;6.830;2023-01-13T03:50:57;99982.88;;;12.33;69.01
63731;BME280;49747;51.334;6.830;2023-01-13T03:53:30;99974.16;;;12.31;68.86
63731;BME280;49747;51.334;6.830;2023-01-13T03:56:04;99967.19;;;12.30;68.79
63731;BME280;49747;51.334;6.830;2023-01-13T03:58:36;99964.94;;;12.25;69.12
63731;BME280;49747;51.334;6.830;2023-01-13T04:01:19;99971.09;;;12.26;69.00
63731;BME280;49747;51.334;6.830;2023-01-13T04:03:53;99970.53;;;12.22;69.12
63731;BME280;49747;51.334;6.830;2023-01-13T04:06:32;99971.53;;;12.21;69.47
63731;BME280;49747;51.334;6.830;2023-01-13T04:11:55;99971.78;;;12.18;69.85
63731;BME280;49747;51.334;6.830;2023-01-13T04:14:25;99981.03;;;12.14;69.51
63731;BME280;49747;51.334;6.830;2023-01-13T04:16:53;99974.88;;;12.14;69.96
63731;BME280;49747;51.334;6.830;2023-01-13T04:19:20;99982.16;;;12.12;70.30
63731;BME280;49747;51.334;6.830;2023-01-13T04:21:47;99977.66;;;12.12;70.30
63731;BME280;49747;51.334;6.830;2023-01-13T04:24:13;99976.97;;;12.10;71.53
63731;BME280;49747;51.334;6.830;2023-01-13T04:26:40;99976.81;;;12.12;71.29
63731;BME280;49747;51.334;6.830;2023-01-13T04:29:08;99965.59;;;12.08;71.11
63731;BME280;49747;51.334;6.830;2023-01-13T04:31:34;99975.00;;;12.12;71.29
63731;BME280;49747;51.334;6.830;2023-01-13T04:34:01;99979.38;;;12.13;70.62
63731;BME280;49747;51.334;6.830;2023-01-13T04:36:27;99970.94;;;12.08;71.23
63731;BME280;49747;51.334;6.830;2023-01-13T04:38:54;99984.38;;;12.16;70.89
63731;BME280;49747;51.334;6.830;2023-01-13T04:41:21;99979.06;;;12.16;70.61
63731;BME280;49747;51.334;6.830;2023-01-13T04:43:47;99977.25;;;12.17;70.77
63731;BME280;49747;51.334;6.830;2023-01-13T04:46:14;99977.81;;;12.20;70.73
63731;BME280;49747;51.334;6.830;2023-01-13T04:48:40;99988.47;;;12.20;70.65
63731;BME280;49747;51.334;6.830;2023-01-13T04:51:07;99982.72;;;12.15;70.44
63731;BME280;49747;51.334;6.830;2023-01-13T04:53:33;99988.34;;;12.22;71.16
63731;BME280;49747;51.334;6.830;2023-01-13T04:56:00;99976.28;;;12.18;71.03
63731;BME280;49747;51.334;6.830;2023-01-13T04:58:27;99988.06;;;12.25;70.88
63731;BME280;49747;51.334;6.830;2023-01-13T05:00:53;99998.41;;;12.28;71.40
63731;BME280;49747;51.334;6.830;2023-01-13T05:03:20;99986.09;;;12.27;71.72
63731;BME280;49747;51.334;6.830;2023-01-13T05:05:50;99982.59;;;12.26;70.50
63731;BME280;49747;51.334;6.830;2023-01-13T05:08:16;99953.97;;;12.28;70.86
63731;BME280;49747;51.334;6.830;2023-01-13T05:10:43;99939.97;;;12.26;70.45
63731;BME280;49747;51.334;6.830;2023-01-13T05:13:09;99944.19;;;12.29;70.64
63731;BME280;49747;51.334;6.830;2023-01-13T05:15:54;99959.47;;;12.27;71.32
63731;BME280;49747;51.334;6.830;2023-01-13T05:18:39;99966.34;;;12.29;71.07
63731;BME280;49747;51.334;6.830;2023-01-13T05:21:05;99975.28;;;12.28;70.99
63731;BME280;49747;51.334;6.830;2023-01-13T05:23:52;99983.28;;;12.28;71.73
63731;BME280;49747;51.334;6.830;2023-01-13T05:26:37;99987.06;;;12.26;71.18
63731;BME280;49747;51.334;6.830;2023-01-13T05:29:03;99992.41;;;12.26;71.43
63731;BME280;49747;51.334;6.830;2023-01-13T05:31:30;99986.09;;;12.27;71.25
63731;BME280;49747;51.334;6.830;2023-01-13T05:33:56;99990.31;;;12.29;71.43
63731;BME280;49747;51.334;6.830;2023-01-13T05:36:23;99990.16;;;12.31;71.09
63731;BME280;49747;51.334;6.830;2023-01-13T05:38:50;99988.31;;;12.31;71.07
63731;BME280;49747;51.334;6.830;2023-01-13T05:41:16;99996.31;;;12.31;70.66
63731;BME280;49747;51.334;6.830;2023-01-13T05:44:02;99990.88;;;12.33;70.89
63731;BME280;49747;51.334;6.830;2023-01-13T05:46:28;100002.38;;;12.33;71.08
63731;BME280;49747;51.334;6.830;2023-01-13T05:48:55;99992.66;;;12.32;71.11
63731;BME280;49747;51.334;6.830;2023-01-13T05:51:21;99998.88;;;12.33;71.26
63731;BME280;49747;51.334;6.830;2023-01-13T05:53:51;100005.03;;;12.33;71.11
63731;BME280;49747;51.334;6.830;2023-01-13T05:56:18;100007.69;;;12.33;70.89
63731;BME280;49747;51.334;6.830;2023-01-13T05:58:44;99996.03;;;12.35;71.04
63731;BME280;49747;51.334;6.830;2023-01-13T06:01:11;99994.22;;;12.25;70.88
63731;BME280;49747;51.334;6.830;2023-01-13T06:03:37;100001.53;;;12.33;71.07
63731;BME280;49747;51.334;6.830;2023-01-13T06:06:04;100007.69;;;12.33;70.97
63731;BME280;49747;51.334;6.830;2023-01-13T06:08:31;100000.41;;;12.26;70.88
63731;BME280;49747;51.334;6.830;2023-01-13T06:10:57;100004.31;;;12.31;71.53
63731;BME280;49747;51.334;6.830;2023-01-13T06:13:24;100005.97;;;12.32;71.71
63731;BME280;49747;51.334;6.830;2023-01-13T06:15:54;100014.97;;;12.31;71.30
63731;BME280;49747;51.334;6.830;2023-01-13T06:18:21;100011.31;;;12.32;71.45
63731;BME280;49747;51.334;6.830;2023-01-13T06:20:48;100019.44;;;12.31;72.01
63731;BME280;49747;51.334;6.830;2023-01-13T06:23:14;100010.22;;;12.25;73.12
63731;BME280;49747;51.334;6.830;2023-01-13T06:26:07;100015.38;;;12.27;71.14
63731;BME280;49747;51.334;6.830;2023-01-13T06:28:35;100016.22;;;12.27;70.54
63731;BME280;49747;51.334;6.830;2023-01-13T06:31:05;100007.81;;;12.22;71.65
63731;BME280;49747;51.334;6.830;2023-01-13T06:33:36;100014.81;;;12.23;71.63
63731;BME280;49747;51.334;6.830;2023-01-13T06:36:09;100005.41;;;12.19;71.09
63731;BME280;49747;51.334;6.830;2023-01-13T06:38:45;100005.31;;;12.21;70.58
63731;BME280;49747;51.334;6.830;2023-01-13T06:41:13;100005.41;;;12.19;70.42
63731;BME280;49747;51.334;6.830;2023-01-13T06:43:40;99998.84;;;12.14;70.58
63731;BME280;49747;51.334;6.830;2023-01-13T06:46:07;100015.50;;;12.16;72.44
63731;BME280;49747;51.334;6.830;2023-01-13T06:48:33;100015.78;;;12.13;71.20
63731;BME280;49747;51.334;6.830;2023-01-13T06:51:02;100007.38;;;12.07;71.38
63731;BME280;49747;51.334;6.830;2023-01-13T06:53:29;100013.25;;;12.01;71.49
63731;BME280;49747;51.334;6.830;2023-01-13T06:55:55;100019.84;;;12.07;71.19
63731;BME280;49747;51.334;6.830;2023-01-13T06:58:22;100017.31;;;12.05;70.61
63731;BME280;49747;51.334;6.830;2023-01-13T07:00:49;100023.50;;;12.06;70.49
63731;BME280;49747;51.334;6.830;2023-01-13T07:03:18;100020.94;;;12.04;70.06
63731;BME280;49747;51.334;6.830;2023-01-13T07:05:54;100017.59;;;12.02;70.64
63731;BME280;49747;51.334;6.830;2023-01-13T07:08:22;100017.19;;;11.97;69.56
63731;BME280;49747;51.334;6.830;2023-01-13T07:10:49;100024.88;;;12.00;70.03
63731;BME280;49747;51.334;6.830;2023-01-13T07:13:17;100034.81;;;11.98;70.48
63731;BME280;49747;51.334;6.830;2023-01-13T07:16:04;100019.25;;;11.94;71.03
63731;BME280;49747;51.334;6.830;2023-01-13T07:18:32;100015.88;;;11.92;70.79
63731;BME280;49747;51.334;6.830;2023-01-13T07:21:10;100027.38;;;11.92;71.71
63731;BME280;49747;51.334;6.830;2023-01-13T07:23:45;100034.66;;;11.90;72.12
63731;BME280;49747;51.334;6.830;2023-01-13T07:26:12;100021.22;;;11.92;71.60
63731;BME280;49747;51.334;6.830;2023-01-13T07:28:39;100022.34;;;11.89;72.12
63731;BME280;49747;51.334;6.830;2023-01-13T07:31:12;100033.69;;;11.91;71.61
63731;BME280;49747;51.334;6.830;2023-01-13T07:33:39;100036.47;;;11.90;72.15
63731;BME280;49747;51.334;6.830;2023-01-13T07:36:07;100045.41;;;11.89;72.56
63731;BME280;49747;51.334;6.830;2023-01-13T07:38:34;100037.59;;;11.87;73.50
63731;BME280;49747;51.334;6.830;2023-01-13T07:41:01;100047.81;;;11.92;73.56
63731;BME280;49747;51.334;6.830;2023-01-13T07:43:46;100043.34;;;11.92;72.63
63731;BME280;49747;51.334;6.830;2023-01-13T07:46:13;100029.06;;;11.93;72.28
63731;BME280;49747;51.334;6.830;2023-01-13T07:48:40;100041.13;;;11.97;71.63
63731;BME280;49747;51.334;6.830;2023-01-13T07:51:08;100049.13;;;11.97;72.97
63731;BME280;49747;51.334;6.830;2023-01-13T07:53:35;100044.47;;;11.99;72.15
63731;BME280;49747;51.334;6.830;2023-01-13T07:56:03;100052.47;;;11.99;71.85
63731;BME280;49747;51.334;6.830;2023-01-13T07:58:31;100063.84;;;12.01;71.94
63731;BME280;49747;51.334;6.830;2023-01-13T08:00:59;100049.41;;;12.04;72.01
63731;BME280;49747;51.334;6.830;2023-01-13T08:03:26;100049.41;;;12.04;72.54
63731;BME280;49747;51.334;6.830;2023-01-13T08:05:52;100048.69;;;12.02;72.50
63731;BME280;49747;51.334;6.830;2023-01-13T08:08:19;100063.28;;;12.07;74.70
63731;BME280;49747;51.334;6.830;2023-01-13T08:10:45;100062.44;;;12.07;72.39
63731;BME280;49747;51.334;6.830;2023-01-13T08:13:17;100073.66;;;12.11;71.58
63731;BME280;49747;51.334;6.830;2023-01-13T08:15:48;100078.97;;;12.11;70.40
63731;BME280;49747;51.334;6.830;2023-01-13T08:18:16;100079.81;;;11.80;69.44
63731;BME280;49747;51.334;6.830;2023-01-13T08:20:49;100079.41;;;11.75;78.80
63731;BME280;49747;51.334;6.830;2023-01-13T08:23:19;100078.22;;;12.49;95.15
63731;BME280;49747;51.334;6.830;2023-01-13T08:25:46;100079.69;;;12.13;73.71
63731;BME280;49747;51.334;6.830;2023-01-13T08:28:14;100083.66;;;11.88;71.61
63731;BME280;49747;51.334;6.830;2023-01-13T08:30:42;100091.34;;;11.50;71.96
63731;BME280;49747;51.334;6.830;2023-01-13T08:33:10;100092.13;;;11.41;71.90
63731;BME280;49747;51.334;6.830;2023-01-13T08:35:41;100104.28;;;11.13;72.67
63731;BME280;49747;51.334;6.830;2023-01-13T08:38:08;100103.09;;;11.06;73.52
63731;BME280;49747;51.334;6.830;2023-01-13T08:40:35;100108.41;;;11.06;74.09
63731;BME280;49747;51.334;6.830;2023-01-13T08:43:02;100099.50;;;10.75;74.29
63731;BME280;49747;51.334;6.830;2023-01-13T08:45:28;100100.56;;;10.72;75.17
63731;BME280;49747;51.334;6.830;2023-01-13T08:47:55;100092.00;;;10.69;75.20
63731;BME280;49747;51.334;6.830;2023-01-13T08:50:22;100099.91;;;10.59;76.06
63731;BME280;49747;51.334;6.830;2023-01-13T08:52:48;100112.13;;;10.50;76.63
63731;BME280;49747;51.334;6.830;2023-01-13T08:55:15;100121.66;;;10.53;76.85
63731;BME280;49747;51.334;6.830;2023-01-13T08:57:41;100116.84;;;10.47;76.45
63731;BME280;49747;51.334;6.830;2023-01-13T09:00:08;100120.81;;;10.52;77.06
63731;BME280;49747;51.334;6.830;2023-01-13T09:02:35;100104.16;;;10.50;76.66
63731;BME280;49747;51.334;6.830;2023-01-13T09:05:05;100113.97;;;10.39;77.47
63731;BME280;49747;51.334;6.830;2023-01-13T09:07:35;100121.72;;;10.30;77.65
63731;BME280;49747;51.334;6.830;2023-01-13T09:10:04;100129.44;;;10.33;78.11
63731;BME280;49747;51.334;6.830;2023-01-13T09:12:30;100104.91;;;10.41;77.30
63731;BME280;49747;51.334;6.830;2023-01-13T09:15:16;100131.34;;;10.43;77.36
63731;BME280;49747;51.334;6.830;2023-01-13T09:17:45;100115.66;;;10.40;77.48
63731;BME280;49747;51.334;6.830;2023-01-13T09:20:13;100116.50;;;10.40;76.58
63731;BME280;49747;51.334;6.830;2023-01-13T09:22:40;100129.41;;;10.45;77.05
63731;BME280;49747;51.334;6.830;2023-01-13T09:25:07;100121.56;;;10.43;77.96
63731;BME280;49747;51.334;6.830;2023-01-13T09:27:34;100127.72;;;10.44;77.21
63731;BME280;49747;51.334;6.830;2023-01-13T09:30:00;100125.66;;;10.47;77.28
63731;BME280;49747;51.334;6.830;2023-01-13T09:32:27;100125.59;;;10.26;77.65
63731;BME280;49747;51.334;6.830;2023-01-13T09:34:53;100139.78;;;10.48;77.27
63731;BME280;49747;51.334;6.830;2023-01-13T09:37:39;100142.31;;;10.49;77.08
63731;BME280;49747;51.334;6.830;2023-01-13T09:40:14;100127.22;;;10.50;77.47
63731;BME280;49747;51.334;6.830;2023-01-13T09:42:57;100136.38;;;10.57;76.95
63731;BME280;49747;51.334;6.830;2023-01-13T09:46:01;100139.38;;;10.64;76.52
63731;BME280;49747;51.334;6.830;2023-01-13T09:48:38;100142.91;;;10.53;76.45
63731;BME280;49747;51.334;6.830;2023-01-13T09:51:28;100142.66;;;10.56;75.99
63731;BME280;49747;51.334;6.830;2023-01-13T09:54:02;100156.78;;;10.56;76.24
63731;BME280;49747;51.334;6.830;2023-01-13T09:56:31;100152.28;;;10.68;75.83
63731;BME280;49747;51.334;6.830;2023-01-13T09:58:58;100148.28;;;10.74;75.62
63731;BME280;49747;51.334;6.830;2023-01-13T10:01:41;100141.78;;;10.67;75.34
63731;BME280;49747;51.334;6.830;2023-01-13T10:04:12;100141.88;;;10.76;74.97
63731;BME280;49747;51.334;6.830;2023-01-13T10:06:41;100137.94;;;10.59;75.26
63731;BME280;49747;51.334;6.830;2023-01-13T10:09:29;100139.88;;;10.57;75.68
63731;BME280;49747;51.334;6.830;2023-01-13T10:12:00;100136.53;;;10.44;75.60
63731;BME280;49747;51.334;6.830;2023-01-13T10:14:55;100141.22;;;10.52;75.47
63731;BME280;49747;51.334;6.830;2023-01-13T10:17:49;100149.69;;;10.89;74.72
63731;BME280;49747;51.334;6.830;2023-01-13T10:20:23;100149.44;;;10.81;74.19
63731;BME280;49747;51.334;6.830;2023-01-13T10:26:20;100153.59;;;11.48;72.64
63731;BME280;49747;51.334;6.830;2023-01-13T10:28:52;100156.75;;;11.21;72.04
63731;BME280;49747;51.334;6.830;2023-01-13T10:31:19;100162.47;;;11.16;72.98
63731;BME280;49747;51.334;6.830;2023-01-13T10:33:47;100169.63;;;11.37;71.36
63731;BME280;49747;51.334;6.830;2023-01-13T10:36:17;100171.03;;;11.41;72.02
63731;BME280;49747;51.334;6.830;2023-01-13T10:38:48;100156.97;;;11.29;71.87
63731;BME280;49747;51.334;6.830;2023-01-13T10:43:58;100172.94;;;11.50;70.82
63731;BME280;49747;51.334;6.830;2023-01-13T10:46:25;100183.13;;;11.45;70.94
63731;BME280;49747;51.334;6.830;2023-01-13T10:49:36;100184.28;;;11.31;72.21
63731;BME280;49747;51.334;6.830;2023-01-13T10:51:43;100186.09;;;11.30;71.00
63731;BME280;49747;51.334;6.830;2023-01-13T10:56:42;100173.94;;;11.17;71.55
63731;BME280;49747;51.334;6.830;2023-01-13T11:01:42;100166.06;;;11.05;71.55
63731;BME280;49747;51.334;6.830;2023-01-13T11:05:27;100172.84;;;11.19;71.88
63731;BME280;49747;51.334;6.830;2023-01-13T11:07:35;100170.63;;;11.03;72.34
63731;BME280;49747;51.334;6.830;2023-01-13T11:10:26;100164.88;;;11.19;72.21
63731;BME280;49747;51.334;6.830;2023-01-13T11:13:15;100171.19;;;11.18;71.85
63731;BME280;49747;51.334;6.830;2023-01-13T11:15:51;100174.06;;;10.94;71.58
63731;BME280;49747;51.334;6.830;2023-01-13T11:18:23;100170.78;;;11.02;72.35
63731;BME280;49747;51.334;6.830;2023-01-13T11:20:52;100179.34;;;11.05;72.47
63731;BME280;49747;51.334;6.830;2023-01-13T11:23:49;100171.50;;;10.93;72.27
63731;BME280;49747;51.334;6.830;2023-01-13T11:26:24;100172.56;;;12.06;100.00
63731;BME280;49747;51.334;6.830;2023-01-13T11:28:59;100184.94;;;11.86;73.50
63731;BME280;49747;51.334;6.830;2023-01-13T11:31:36;100193.59;;;11.57;72.10
63731;BME280;49747;51.334;6.830;2023-01-13T11:36:42;100196.34;;;11.35;70.65
63731;BME280;49747;51.334;6.830;2023-01-13T11:39:19;100188.56;;;11.22;71.55
63731;BME280;49747;51.334;6.830;2023-01-13T11:41:47;100196.00;;;11.28;71.62
63731;BME280;49747;51.334;6.830;2023-01-13T11:44:47;100193.09;;;11.31;71.25
63731;BME280;49747;51.334;6.830;2023-01-13T11:47:15;100187.44;;;11.25;71.21
63731;BME280;49747;51.334;6.830;2023-01-13T11:49:46;100193.16;;;11.20;72.35
63731;BME280;49747;51.334;6.830;2023-01-13T11:52:29;100202.75;;;11.12;74.43
63731;BME280;49747;51.334;6.830;2023-01-13T11:55:04;100192.16;;;11.00;75.54
63731;BME280;49747;51.334;6.830;2023-01-13T11:57:42;100190.59;;;10.98;75.92
63731;BME280;49747;51.334;6.830;2023-01-13T12:03:24;100196.94;;;10.85;76.66
63731;BME280;49747;51.334;6.830;2023-01-13T12:05:58;100195.50;;;10.81;77.63
63731;BME280;49747;51.334;6.830;2023-01-13T12:08:50;100204.69;;;10.77;78.96
63731;BME280;49747;51.334;6.830;2023-01-13T12:16:28;100195.69;;;10.46;78.50
63731;BME280;49747;51.334;6.830;2023-01-13T12:19:24;100208.06;;;10.57;80.28
63731;BME280;49747;51.334;6.830;2023-01-13T12:24:50;100218.25;;;10.41;84.15
63731;BME280;49747;51.334;6.830;2023-01-13T12:27:23;100219.22;;;10.28;86.41
63731;BME280;49747;51.334;6.830;2023-01-13T12:29:55;100229.69;;;10.19;87.00
63731;BME280;49747;51.334;6.830;2023-01-13T12:32:33;100258.50;;;10.12;88.83
63731;BME280;49747;51.334;6.830;2023-01-13T12:38:00;100265.44;;;9.68;89.91
63731;BME280;49747;51.334;6.830;2023-01-13T12:43:26;100274.09;;;9.59;90.75
63731;BME280;49747;51.334;6.830;2023-01-13T12:51:28;100266.53;;;9.77;91.28
63731;BME280;49747;51.334;6.830;2023-01-13T12:54:00;100258.69;;;9.75;90.36
63731;BME280;49747;51.334;6.830;2023-01-13T13:01:44;100277.25;;;9.75;89.75
63731;BME280;49747;51.334;6.830;2023-01-13T13:04:13;100285.03;;;9.90;89.03
63731;BME280;49747;51.334;6.830;2023-01-13T13:06:43;100272.47;;;9.92;87.62
63731;BME280;49747;51.334;6.830;2023-01-13T13:09:42;100269.25;;;9.99;87.24
63731;BME280;49747;51.334;6.830;2023-01-13T13:15:28;100281.44;;;10.02;85.32
63731;BME280;49747;51.334;6.830;2023-01-13T13:21:03;100288.81;;;10.09;85.85
63731;BME280;49747;51.334;6.830;2023-01-13T13:23:43;100283.00;;;10.04;85.30
63731;BME280;49747;51.334;6.830;2023-01-13T13:34:26;100307.50;;;10.08;83.57
63731;BME280;49747;51.334;6.830;2023-01-13T13:37:15;100314.34;;;9.99;84.46
63731;BME280;49747;51.334;6.830;2023-01-13T13:39:45;100321.13;;;10.03;84.43
63731;BME280;49747;51.334;6.830;2023-01-13T13:42:41;100313.16;;;10.03;84.65
63731;BME280;49747;51.334;6.830;2023-01-13T13:45:28;100316.06;;;10.11;84.97
63731;BME280;49747;51.334;6.830;2023-01-13T13:48:32;100318.91;;;9.97;84.04
63731;BME280;49747;51.334;6.830;2023-01-13T13:51:01;100332.78;;;9.90;86.14
63731;BME280;49747;51.334;6.830;2023-01-13T13:53:35;100336.19;;;10.03;86.87
63731;BME280;49747;51.334;6.830;2023-01-13T13:56:15;100347.25;;;9.97;87.97
63731;BME280;49747;51.334;6.830;2023-01-13T13:58:45;100348.72;;;10.01;87.83
63731;BME280;49747;51.334;6.830;2023-01-13T14:01:28;100345.22;;;10.00;86.94
63731;BME280;49747;51.334;6.830;2023-01-13T14:04:11;100356.69;;;10.01;88.21
63731;BME280;49747;51.334;6.830;2023-01-13T14:06:55;100348.38;;;9.94;88.79
63731;BME280;49747;51.334;6.830;2023-01-13T14:09:28;100354.28;;;9.98;88.68
63731;BME280;49747;51.334;6.830;2023-01-13T14:12:05;100374.91;;;9.94;89.42
63731;BME280;49747;51.334;6.830;2023-01-13T14:14:34;100351.84;;;9.95;90.05
63731;BME280;49747;51.334;6.830;2023-01-13T14:17:03;100366.72;;;10.08;89.73
63731;BME280;49747;51.334;6.830;2023-01-13T14:19:33;100357.56;;;10.12;89.80
63731;BME280;49747;51.334;6.830;2023-01-13T14:22:02;100366.50;;;10.11;89.58
63731;BME280;49747;51.334;6.830;2023-01-13T14:24:31;100376.66;;;10.18;89.89
63731;BME280;49747;51.334;6.830;2023-01-13T14:27:15;100381.09;;;10.06;89.55
63731;BME280;49747;51.334;6.830;2023-01-13T14:29:43;100385.69;;;10.15;89.91
63731;BME280;49747;51.334;6.830;2023-01-13T14:32:14;100392.16;;;10.00;90.32
63731;BME280;49747;51.334;6.830;2023-01-13T14:34:42;100389.16;;;10.04;90.32
63731;BME280;49747;51.334;6.830;2023-01-13T14:37:31;100400.78;;;10.15;90.12
63731;BME280;49747;51.334;6.830;2023-01-13T14:39:58;100403.16;;;10.06;90.26
63731;BME280;49747;51.334;6.830;2023-01-13T14:42:25;100412.94;;;10.17;90.44
63731;BME280;49747;51.334;6.830;2023-01-13T14:44:53;100396.28;;;10.04;90.54